Terminal Aerodrome Forecast
Issued by NWS

Home | Current Version | Previous Version | Text Only | Print | Product List | Glossary On
Versions: 1 2 3 4 5 6 7 8 9 10 11 12 13 14 15 16 17 18 19 20 21 22 23 24 25 26 27 28 29 30 31 32 33
000
FTUS43 KDLH 290902 AAJ
TAFHYR
TAF AMD
KHYR 290902Z 2909/3006 00000KT 6SM BR FEW005 BKN015
      TEMPO 2910/2911 4SM BR BKN004
     FM291400 VRB03KT P6SM VCSH BKN050
     FM291800 28011KT P6SM VCTS BKN035CB
     FM292000 33008KT P6SM VCTS BKN040CB
     FM300000 VRB03KT P6SM VCTS BKN040CB=

USA.gov is the U.S. government's official web portal to all federal, state and local government web resources and services.